Time;durP1;ratioP1;P1;durP2;ratioP2;P2;SDS_P1;SDS_P2;PMS_P1;PMS_P2;Temp;Humidity;BMP_temperature;BMP_pressure;BME280_temperature;BME280_humidity;BME280_pressure;Samples;Min_cycle;Max_cycle;Signal;HPM_P1;HPM_P2
2022/03/24 00:01:54;;;;;;;0.25;0.25;;;;;;;;;;4983371;28;20076;-82
2022/03/24 00:04:20;;;;;;;0.77;0.63;;;;;;;;;;4982661;28;20037;-83
2022/03/24 00:06:46;;;;;;;0.10;0.10;;;;;;;;;;4984114;28;20041;-84
2022/03/24 00:09:12;;;;;;;0.45;0.45;;;;;;;;;;4984719;28;20501;-83
2022/03/24 00:11:40;;;;;;;2.42;1.55;;;;;;;;;;4982822;28;20784;-83
2022/03/24 00:14:06;;;;;;;0.00;0.00;;;;;;;;;;4984222;28;20796;-89
2022/03/24 00:16:32;;;;;;;0.30;0.30;;;;;;;;;;4982716;28;20046;-87
2022/03/24 00:18:59;;;;;;;0.10;0.10;;;;;;;;;;4999954;28;20077;-88
2022/03/24 00:21:25;;;;;;;0.25;0.25;;;;;;;;;;4983690;28;20045;-88
2022/03/24 00:23:51;;;;;;;0.52;0.40;;;;;;;;;;4983835;28;20030;-88
2022/03/24 00:26:17;;;;;;;0.38;0.38;;;;;;;;;;4983749;28;20036;-87
2022/03/24 00:28:44;;;;;;;0.25;0.25;;;;;;;;;;4982555;28;20401;-89
2022/03/24 00:31:10;;;;;;;0.20;0.20;;;;;;;;;;4980856;28;20042;-87
2022/03/24 00:33:38;;;;;;;0.67;0.67;;;;;;;;;;4983462;28;20034;-87
2022/03/24 00:36:04;;;;;;;0.25;0.25;;;;;;;;;;4985056;28;20030;-88
2022/03/24 00:38:31;;;;;;;2.67;1.75;;;;;;;;;;4983437;28;20064;-87
2022/03/24 00:40:57;;;;;;;1.35;0.82;;;;;;;;;;4984664;28;20034;-87
2022/03/24 00:43:23;;;;;;;0.10;0.10;;;;;;;;;;4980819;28;20031;-87
2022/03/24 00:45:52;;;;;;;0.52;0.52;;;;;;;;;;4984313;28;20086;-87
2022/03/24 00:48:18;;;;;;;0.28;0.28;;;;;;;;;;4978777;28;20045;-87
2022/03/24 00:50:45;;;;;;;0.98;0.98;;;;;;;;;;4983192;28;20454;-88
2022/03/24 00:53:11;;;;;;;0.38;0.38;;;;;;;;;;4982759;28;20395;-88
2022/03/24 00:55:40;;;;;;;0.88;0.60;;;;;;;;;;4982280;28;20046;-88
2022/03/24 00:58:06;;;;;;;0.22;0.22;;;;;;;;;;4981428;28;20034;-86
2022/03/24 01:00:33;;;;;;;1.05;0.40;;;;;;;;;;4984681;28;20029;-86
2022/03/24 01:02:59;;;;;;;0.10;0.10;;;;;;;;;;4982652;28;20038;-87
2022/03/24 01:05:28;;;;;;;0.68;0.68;;;;;;;;;;4982075;28;20384;-86
2022/03/24 01:07:55;;;;;;;0.93;0.85;;;;;;;;;;4983010;28;20073;-87
2022/03/24 01:10:21;;;;;;;0.20;0.20;;;;;;;;;;4981836;28;20453;-87
2022/03/24 01:12:48;;;;;;;0.63;0.63;;;;;;;;;;4983331;28;20027;-86
2022/03/24 01:15:16;;;;;;;0.25;0.25;;;;;;;;;;4983654;28;20871;-85
2022/03/24 01:17:42;;;;;;;0.95;0.95;;;;;;;;;;4982914;28;20502;-86
2022/03/24 01:20:09;;;;;;;0.32;0.32;;;;;;;;;;4981647;28;20030;-86
2022/03/24 01:22:35;;;;;;;0.20;0.20;;;;;;;;;;4982341;28;20561;-85
2022/03/24 01:25:01;;;;;;;0.57;0.57;;;;;;;;;;4981148;28;20045;-86
2022/03/24 01:27:28;;;;;;;0.10;0.10;;;;;;;;;;4983208;28;20030;-85
2022/03/24 01:29:55;;;;;;;0.35;0.35;;;;;;;;;;4982551;28;20766;-85
2022/03/24 01:32:21;;;;;;;0.70;0.70;;;;;;;;;;4984994;28;20430;-92
2022/03/24 01:34:48;;;;;;;0.47;0.47;;;;;;;;;;4988934;28;20028;-93
2022/03/24 01:37:14;;;;;;;0.10;0.10;;;;;;;;;;5003154;28;20050;-91
2022/03/24 01:39:40;;;;;;;0.40;0.40;;;;;;;;;;5003753;28;20034;-92
2022/03/24 01:42:07;;;;;;;0.90;0.90;;;;;;;;;;5003877;28;20042;-91
2022/03/24 01:44:33;;;;;;;0.30;0.30;;;;;;;;;;5000997;28;20030;-92
2022/03/24 01:46:59;;;;;;;1.03;1.03;;;;;;;;;;4987230;28;20022;-91
2022/03/24 01:49:26;;;;;;;0.10;0.10;;;;;;;;;;4987954;28;20807;-91
2022/03/24 01:51:53;;;;;;;0.10;0.10;;;;;;;;;;4981820;28;20030;-83
2022/03/24 01:54:21;;;;;;;0.65;0.65;;;;;;;;;;4981739;28;20085;-83
2022/03/24 01:56:48;;;;;;;0.10;0.10;;;;;;;;;;4981346;28;20553;-83
2022/03/24 01:59:16;;;;;;;4.57;1.30;;;;;;;;;;4980474;28;20022;-83
2022/03/24 02:01:43;;;;;;;0.38;0.38;;;;;;;;;;4984295;28;20445;-91
2022/03/24 02:04:09;;;;;;;2.67;0.93;;;;;;;;;;4984582;28;20037;-89
2022/03/24 02:06:36;;;;;;;0.20;0.20;;;;;;;;;;4983526;28;20571;-84
2022/03/24 02:09:03;;;;;;;0.95;0.95;;;;;;;;;;4994851;28;20402;-86
2022/03/24 02:11:29;;;;;;;0.40;0.40;;;;;;;;;;4980185;28;20140;-87
2022/03/24 02:13:55;;;;;;;0.10;0.10;;;;;;;;;;4981579;28;20062;-87
2022/03/24 02:16:25;;;;;;;3.60;1.07;;;;;;;;;;4982789;28;20773;-86
2022/03/24 02:18:52;;;;;;;0.40;0.40;;;;;;;;;;4982054;28;20116;-87
2022/03/24 02:21:18;;;;;;;0.85;0.85;;;;;;;;;;4985406;28;20069;-86
2022/03/24 02:23:44;;;;;;;0.65;0.65;;;;;;;;;;4982803;28;20034;-88
2022/03/24 02:26:11;;;;;;;0.20;0.20;;;;;;;;;;4983085;28;20022;-88
2022/03/24 02:28:38;;;;;;;;;;;;;;;;;;4981461;28;20042;-87
2022/03/24 02:31:04;;;;;;;0.15;0.15;;;;;;;;;;4980227;28;20529;-86
2022/03/24 02:33:31;;;;;;;0.83;0.83;;;;;;;;;;4982977;28;20029;-86
2022/03/24 02:35:57;;;;;;;0.22;0.22;;;;;;;;;;4981262;28;20042;-86
2022/03/24 02:38:23;;;;;;;0.20;0.20;;;;;;;;;;4982487;28;20132;-88
2022/03/24 02:40:50;;;;;;;0.20;0.20;;;;;;;;;;4983196;28;20308;-87
2022/03/24 02:43:16;;;;;;;;;;;;;;;;;;4985011;28;20025;-87
2022/03/24 02:45:42;;;;;;;0.10;0.10;;;;;;;;;;4984896;28;19917;-88
2022/03/24 02:48:09;;;;;;;0.10;0.10;;;;;;;;;;4999951;28;20037;-88
2022/03/24 02:50:35;;;;;;;2.07;1.10;;;;;;;;;;4983209;28;20282;-88
2022/03/24 02:53:01;;;;;;;0.43;0.43;;;;;;;;;;4998448;28;20301;-87
2022/03/24 02:55:27;;;;;;;0.55;0.55;;;;;;;;;;4984060;28;20129;-88
2022/03/24 02:57:53;;;;;;;0.70;0.70;;;;;;;;;;4982146;28;20045;-85
2022/03/24 03:00:20;;;;;;;0.10;0.10;;;;;;;;;;4982376;28;20030;-84
2022/03/24 03:02:47;;;;;;;0.30;0.30;;;;;;;;;;4978560;28;20064;-83
2022/03/24 03:05:13;;;;;;;0.50;0.50;;;;;;;;;;4980420;28;20776;-83
2022/03/24 03:07:40;;;;;;;0.52;0.52;;;;;;;;;;4984792;28;20282;-92
2022/03/24 03:10:06;;;;;;;0.15;0.15;;;;;;;;;;4982921;28;20037;-85
2022/03/24 03:12:32;;;;;;;0.43;0.40;;;;;;;;;;4988981;28;20121;-91
2022/03/24 03:14:58;;;;;;;1.17;1.08;;;;;;;;;;4992497;28;20036;-92
2022/03/24 03:17:24;;;;;;;0.38;0.38;;;;;;;;;;4988984;28;20409;-90
2022/03/24 03:19:50;;;;;;;0.23;0.23;;;;;;;;;;4990226;28;20068;-88
2022/03/24 03:22:17;;;;;;;0.30;0.30;;;;;;;;;;4994398;28;20035;-92
2022/03/24 03:24:44;;;;;;;0.20;0.20;;;;;;;;;;4989823;28;20076;-91
2022/03/24 03:27:12;;;;;;;0.10;0.10;;;;;;;;;;5001816;28;20033;-90
2022/03/24 03:29:38;;;;;;;0.20;0.20;;;;;;;;;;4984490;28;20038;-89
2022/03/24 03:32:05;;;;;;;0.32;0.32;;;;;;;;;;4982448;28;20490;-89
2022/03/24 03:34:31;;;;;;;0.20;0.20;;;;;;;;;;4985418;28;20130;-87
2022/03/24 03:36:59;;;;;;;0.22;0.22;;;;;;;;;;4984417;28;20557;-88
2022/03/24 03:39:25;;;;;;;1.35;1.25;;;;;;;;;;5004814;28;20061;-92
2022/03/24 03:41:51;;;;;;;20.10;0.90;;;;;;;;;;4990774;28;20133;-93
2022/03/24 03:44:17;;;;;;;0.95;0.95;;;;;;;;;;4993438;28;20022;-93
2022/03/24 03:46:44;;;;;;;0.33;0.33;;;;;;;;;;4989116;28;20117;-84
2022/03/24 03:49:10;;;;;;;0.10;0.10;;;;;;;;;;4986215;28;20301;-83
2022/03/24 03:51:37;;;;;;;0.25;0.25;;;;;;;;;;4988028;28;20679;-83
2022/03/24 03:54:04;;;;;;;0.43;0.43;;;;;;;;;;4989046;28;20050;-83
2022/03/24 03:56:30;;;;;;;0.20;0.20;;;;;;;;;;4984470;28;20077;-83
2022/03/24 03:58:56;;;;;;;6.57;1.55;;;;;;;;;;4989267;28;20037;-82
2022/03/24 04:01:22;;;;;;;0.77;0.50;;;;;;;;;;4985378;28;20089;-82
2022/03/24 04:03:48;;;;;;;1.55;1.08;;;;;;;;;;4980622;28;20040;-83
2022/03/24 04:06:15;;;;;;;0.40;0.40;;;;;;;;;;4985848;28;20042;-89
2022/03/24 04:08:42;;;;;;;0.10;0.10;;;;;;;;;;4988243;28;20073;-88
2022/03/24 04:11:09;;;;;;;0.20;0.20;;;;;;;;;;4989317;28;20030;-88
2022/03/24 04:13:36;;;;;;;0.20;0.20;;;;;;;;;;5001013;28;20077;-87
2022/03/24 04:16:05;;;;;;;0.52;0.52;;;;;;;;;;4987890;28;20042;-88
2022/03/24 04:18:31;;;;;;;0.57;0.57;;;;;;;;;;4989190;28;20097;-87
2022/03/24 04:20:57;;;;;;;0.20;0.20;;;;;;;;;;4986941;28;20108;-87
2022/03/24 04:23:23;;;;;;;0.60;0.60;;;;;;;;;;4985696;28;20029;-87
2022/03/24 04:25:49;;;;;;;0.37;0.37;;;;;;;;;;4983978;28;20344;-88
2022/03/24 04:28:16;;;;;;;0.25;0.25;;;;;;;;;;4984572;28;20034;-87
2022/03/24 04:30:45;;;;;;;0.60;0.60;;;;;;;;;;4986941;28;20038;-87
2022/03/24 04:33:11;;;;;;;0.40;0.40;;;;;;;;;;4989476;28;20057;-86
2022/03/24 04:35:37;;;;;;;0.17;0.17;;;;;;;;;;4982447;28;20046;-87
2022/03/24 04:38:04;;;;;;;0.52;0.52;;;;;;;;;;4984976;28;20589;-88
2022/03/24 04:40:30;;;;;;;0.10;0.10;;;;;;;;;;4982181;28;20037;-85
2022/03/24 04:42:57;;;;;;;0.35;0.35;;;;;;;;;;4983153;28;20052;-84
2022/03/24 04:45:23;;;;;;;1.43;1.03;;;;;;;;;;4984302;28;20019;-85
2022/03/24 04:47:50;;;;;;;1.98;1.35;;;;;;;;;;4982648;28;20289;-85
2022/03/24 04:50:17;;;;;;;0.20;0.20;;;;;;;;;;4982350;28;20114;-85
2022/03/24 04:52:43;;;;;;;0.30;0.30;;;;;;;;;;4983045;28;20309;-85
2022/03/24 04:55:09;;;;;;;0.75;0.75;;;;;;;;;;4983140;28;20126;-85
2022/03/24 04:57:36;;;;;;;0.20;0.20;;;;;;;;;;4983077;28;20045;-84
2022/03/24 05:00:02;;;;;;;0.10;0.10;;;;;;;;;;4982099;28;20037;-84
2022/03/24 05:02:29;;;;;;;1.63;1.52;;;;;;;;;;4983399;28;20035;-84
2022/03/24 05:04:55;;;;;;;1.23;1.13;;;;;;;;;;4983125;28;20034;-84
2022/03/24 05:07:21;;;;;;;0.30;0.30;;;;;;;;;;4983645;28;20042;-84
2022/03/24 05:09:50;;;;;;;0.17;0.17;;;;;;;;;;4982079;28;20410;-84
2022/03/24 05:12:16;;;;;;;0.20;0.20;;;;;;;;;;4998361;28;20034;-86
2022/03/24 05:14:42;;;;;;;0.30;0.30;;;;;;;;;;4984462;28;20034;-88
2022/03/24 05:17:08;;;;;;;0.30;0.30;;;;;;;;;;4983364;28;20034;-86
2022/03/24 05:19:34;;;;;;;1.30;0.55;;;;;;;;;;4983245;28;20273;-87
2022/03/24 05:22:01;;;;;;;0.10;0.10;;;;;;;;;;4984059;28;20043;-86
2022/03/24 05:24:27;;;;;;;0.20;0.20;;;;;;;;;;4982565;28;20045;-83
2022/03/24 05:26:53;;;;;;;0.10;0.10;;;;;;;;;;4982003;28;20764;-83
2022/03/24 05:29:19;;;;;;;0.30;0.30;;;;;;;;;;4982204;28;20050;-83
2022/03/24 05:31:45;;;;;;;0.30;0.30;;;;;;;;;;4981902;28;20125;-83
2022/03/24 05:34:11;;;;;;;0.20;0.20;;;;;;;;;;4980328;28;20090;-82
2022/03/24 05:36:38;;;;;;;0.20;0.20;;;;;;;;;;4984268;28;20046;-84
2022/03/24 05:39:04;;;;;;;0.40;0.40;;;;;;;;;;4995006;28;20084;-85
2022/03/24 05:41:31;;;;;;;0.43;0.43;;;;;;;;;;4980722;28;20245;-85
2022/03/24 05:44:03;;;;;;;1.85;1.75;;;;;;;;;;4983192;28;20036;-87
2022/03/24 05:46:30;;;;;;;0.20;0.20;;;;;;;;;;4984161;28;20731;-88
2022/03/24 05:48:56;;;;;;;0.10;0.10;;;;;;;;;;4983940;28;20252;-86
2022/03/24 05:51:23;;;;;;;0.10;0.10;;;;;;;;;;4982501;28;20490;-84
2022/03/24 05:53:49;;;;;;;0.30;0.30;;;;;;;;;;4981310;28;20054;-84
2022/03/24 05:56:16;;;;;;;0.60;0.60;;;;;;;;;;4981741;28;20137;-84
2022/03/24 05:58:42;;;;;;;0.43;0.43;;;;;;;;;;4982260;28;20035;-87
2022/03/24 06:01:09;;;;;;;0.75;0.75;;;;;;;;;;5001311;28;20038;-92
2022/03/24 06:03:36;;;;;;;0.20;0.20;;;;;;;;;;4982953;28;20026;-87
2022/03/24 06:06:03;;;;;;;0.73;0.73;;;;;;;;;;4980882;28;20498;-85
2022/03/24 06:08:30;;;;;;;;;;;;;;;;;;4981799;28;20844;-83
2022/03/24 06:10:57;;;;;;;0.65;0.65;;;;;;;;;;4981024;28;19917;-85
2022/03/24 06:13:25;;;;;;;0.68;0.68;;;;;;;;;;4979110;28;20763;-85
2022/03/24 06:15:51;;;;;;;0.20;0.20;;;;;;;;;;4981858;28;20034;-85
2022/03/24 06:18:17;;;;;;;1.55;0.85;;;;;;;;;;4997676;28;20112;-86
2022/03/24 06:20:44;;;;;;;0.28;0.28;;;;;;;;;;4981727;28;20030;-85
2022/03/24 06:23:10;;;;;;;0.50;0.50;;;;;;;;;;4983125;28;20030;-81
2022/03/24 06:25:37;;;;;;;0.85;0.85;;;;;;;;;;4980234;28;20085;-81
2022/03/24 06:28:06;;;;;;;0.30;0.30;;;;;;;;;;4981496;28;20046;-87
2022/03/24 06:30:32;;;;;;;0.47;0.47;;;;;;;;;;4982431;28;20026;-87
2022/03/24 06:32:59;;;;;;;0.23;0.23;;;;;;;;;;4981930;28;20034;-81
2022/03/24 06:35:25;;;;;;;0.20;0.20;;;;;;;;;;4980990;28;20735;-81
2022/03/24 06:37:51;;;;;;;0.73;0.30;;;;;;;;;;4982484;28;20038;-88
2022/03/24 06:40:18;;;;;;;0.10;0.10;;;;;;;;;;4981195;28;20030;-84
2022/03/24 06:42:44;;;;;;;0.88;0.85;;;;;;;;;;4977745;28;20101;-85
2022/03/24 06:45:11;;;;;;;0.40;0.40;;;;;;;;;;4981657;28;20035;-85
2022/03/24 06:47:38;;;;;;;0.98;0.93;;;;;;;;;;4982348;28;20446;-85
2022/03/24 06:50:04;;;;;;;;;;;;;;;;;;4980510;28;20027;-86
2022/03/24 06:52:30;;;;;;;1.25;1.15;;;;;;;;;;4980374;28;19930;-85
2022/03/24 06:54:56;;;;;;;3.30;1.60;;;;;;;;;;4981069;28;20103;-88
2022/03/24 06:57:22;;;;;;;0.00;0.00;;;;;;;;;;4999395;28;20772;-86
2022/03/24 06:59:48;;;;;;;2.42;0.85;;;;;;;;;;4981343;28;20864;-87
2022/03/24 07:02:15;;;;;;;0.40;0.20;;;;;;;;;;4996705;28;20116;-87
2022/03/24 07:04:41;;;;;;;0.05;0.05;;;;;;;;;;4982718;28;20588;-88
2022/03/24 07:07:08;;;;;;;0.57;0.57;;;;;;;;;;4982517;28;20030;-91
2022/03/24 07:09:37;;;;;;;0.30;0.30;;;;;;;;;;5000194;28;20034;-90
2022/03/24 07:12:04;;;;;;;0.25;0.25;;;;;;;;;;4982750;28;20037;-89
2022/03/24 07:14:30;;;;;;;1.02;0.65;;;;;;;;;;4982005;28;20031;-88
2022/03/24 07:16:56;;;;;;;0.30;0.30;;;;;;;;;;4980379;28;20049;-89
2022/03/24 07:19:22;;;;;;;0.37;0.37;;;;;;;;;;4981927;28;20700;-88
2022/03/24 07:21:49;;;;;;;1.05;1.00;;;;;;;;;;4981414;28;20104;-88
2022/03/24 07:24:15;;;;;;;0.88;0.88;;;;;;;;;;4998066;28;20038;-87
2022/03/24 07:26:41;;;;;;;0.30;0.30;;;;;;;;;;4982227;28;20146;-89
2022/03/24 07:29:10;;;;;;;0.10;0.10;;;;;;;;;;4980518;28;20105;-87
2022/03/24 07:31:36;;;;;;;0.40;0.40;;;;;;;;;;4981173;28;20046;-88
2022/03/24 07:34:03;;;;;;;8.07;0.68;;;;;;;;;;4980720;28;20038;-88
2022/03/24 07:36:29;;;;;;;1.88;0.70;;;;;;;;;;4982990;28;20038;-91
2022/03/24 07:38:56;;;;;;;1.97;0.90;;;;;;;;;;4981037;28;20053;-86
2022/03/24 07:41:22;;;;;;;0.13;0.13;;;;;;;;;;4980795;28;20804;-88
2022/03/24 07:43:49;;;;;;;0.60;0.60;;;;;;;;;;4979533;28;20034;-87
2022/03/24 07:46:15;;;;;;;2.10;0.35;;;;;;;;;;4975325;28;20035;-93
2022/03/24 07:48:46;;;;;;;9.98;0.52;;;;;;;;;;4987448;28;20058;-94
2022/03/24 07:51:12;;;;;;;0.47;0.47;;;;;;;;;;4977226;28;20505;-82
2022/03/24 07:53:38;;;;;;;0.22;0.22;;;;;;;;;;4980134;28;20061;-83
2022/03/24 07:56:04;;;;;;;4.32;1.48;;;;;;;;;;4981896;28;20125;-83
2022/03/24 07:58:31;;;;;;;2.17;0.90;;;;;;;;;;4983094;28;20042;-83
2022/03/24 08:00:57;;;;;;;0.38;0.38;;;;;;;;;;4983270;28;20059;-82
2022/03/24 08:03:23;;;;;;;;;;;;;;;;;;4984814;28;20094;-83
2022/03/24 08:05:50;;;;;;;2.15;0.90;;;;;;;;;;4982475;28;20361;-82
2022/03/24 08:08:16;;;;;;;3.63;0.70;;;;;;;;;;4986644;28;20065;-90
2022/03/24 08:10:43;;;;;;;0.55;0.40;;;;;;;;;;4987542;28;20026;-89
2022/03/24 08:13:11;;;;;;;0.45;0.40;;;;;;;;;;4981463;28;20027;-89
2022/03/24 08:15:37;;;;;;;0.22;0.10;;;;;;;;;;5001320;28;20124;-89
2022/03/24 08:18:04;;;;;;;;;;;;;;;;;;4987818;28;20120;-89
2022/03/24 08:20:30;;;;;;;;;;;;;;;;;;4987912;28;20370;-89
2022/03/24 08:22:56;;;;;;;0.35;0.30;;;;;;;;;;4987605;28;20012;-89
2022/03/24 08:25:22;;;;;;;0.50;0.30;;;;;;;;;;4987663;28;20038;-89
2022/03/24 08:27:48;;;;;;;0.30;0.25;;;;;;;;;;4988293;28;20272;-89
2022/03/24 08:30:15;;;;;;;0.38;0.38;;;;;;;;;;4986969;28;20022;-91
2022/03/24 08:32:41;;;;;;;;;;;;;;;;;;4988312;28;20041;-89
2022/03/24 08:35:08;;;;;;;0.47;0.47;;;;;;;;;;4985866;28;19936;-89
2022/03/24 08:37:34;;;;;;;;;;;;;;;;;;4988583;28;20611;-89
2022/03/24 08:40:00;;;;;;;0.00;0.00;;;;;;;;;;4988212;28;20055;-90
2022/03/24 08:42:26;;;;;;;0.32;0.28;;;;;;;;;;4987786;28;20035;-90
2022/03/24 08:44:52;;;;;;;1.65;1.55;;;;;;;;;;4988083;28;20038;-89
2022/03/24 08:47:18;;;;;;;0.32;0.32;;;;;;;;;;4987010;28;20053;-89
2022/03/24 08:49:44;;;;;;;0.55;0.47;;;;;;;;;;4987149;28;20034;-89
2022/03/24 08:52:10;;;;;;;0.40;0.40;;;;;;;;;;4985441;28;20034;-89
2022/03/24 08:54:36;;;;;;;0.20;0.15;;;;;;;;;;4985177;28;20050;-89
2022/03/24 08:57:03;;;;;;;0.63;0.60;;;;;;;;;;4986800;28;20200;-90
2022/03/24 08:59:29;;;;;;;;;;;;;;;;;;4987845;28;20022;-90
2022/03/24 09:01:55;;;;;;;0.50;0.50;;;;;;;;;;4986897;28;20384;-90
2022/03/24 09:04:26;;;;;;;0.35;0.20;;;;;;;;;;4985920;28;20042;-90
2022/03/24 09:06:52;;;;;;;0.47;0.47;;;;;;;;;;4986408;28;20034;-83
2022/03/24 09:09:20;;;;;;;0.10;0.10;;;;;;;;;;4999537;28;20084;-83
2022/03/24 09:11:46;;;;;;;1.50;1.08;;;;;;;;;;4983596;28;20050;-82
2022/03/24 09:14:12;;;;;;;0.20;0.20;;;;;;;;;;4981801;28;20030;-83
2022/03/24 09:16:38;;;;;;;0.52;0.47;;;;;;;;;;4974983;28;20730;-83
2022/03/24 09:19:04;;;;;;;0.00;0.00;;;;;;;;;;4980291;28;20896;-83
2022/03/24 09:21:31;;;;;;;4.47;0.73;;;;;;;;;;4983487;28;20031;-83
2022/03/24 09:23:57;;;;;;;0.47;0.47;;;;;;;;;;4982405;28;20034;-84
2022/03/24 09:26:23;;;;;;;2.10;0.93;;;;;;;;;;4978884;28;20549;-83
2022/03/24 09:28:52;;;;;;;11.27;0.70;;;;;;;;;;4982159;28;20066;-83
2022/03/24 09:31:20;;;;;;;0.28;0.28;;;;;;;;;;4983116;28;20088;-83
2022/03/24 09:33:46;;;;;;;0.80;0.52;;;;;;;;;;4982896;28;20064;-83
2022/03/24 09:36:12;;;;;;;0.32;0.32;;;;;;;;;;4980428;28;20034;-83
2022/03/24 09:38:39;;;;;;;0.22;0.22;;;;;;;;;;4982317;28;20049;-84
2022/03/24 09:41:09;;;;;;;0.70;0.20;;;;;;;;;;4982674;28;20022;-84
2022/03/24 09:43:41;;;;;;;0.20;0.20;;;;;;;;;;4982399;28;20121;-83
2022/03/24 09:46:08;;;;;;;1.35;0.65;;;;;;;;;;4981948;28;20072;-83
2022/03/24 09:48:34;;;;;;;0.52;0.40;;;;;;;;;;4983460;28;20125;-83
2022/03/24 09:51:00;;;;;;;1.17;0.52;;;;;;;;;;4980860;28;20036;-83
2022/03/24 09:53:26;;;;;;;0.75;0.75;;;;;;;;;;4980809;28;20077;-84
2022/03/24 09:55:52;;;;;;;0.75;0.28;;;;;;;;;;4981656;28;20053;-84
2022/03/24 09:58:23;;;;;;;0.38;0.38;;;;;;;;;;4980699;28;20041;-84
2022/03/24 10:00:49;;;;;;;0.65;0.45;;;;;;;;;;4982462;28;20500;-83
2022/03/24 10:03:17;;;;;;;0.10;0.10;;;;;;;;;;4981864;28;20035;-84
2022/03/24 10:05:59;;;;;;;2.38;0.90;;;;;;;;;;4980713;28;20787;-84
2022/03/24 10:08:30;;;;;;;0.70;0.70;;;;;;;;;;4983121;28;20022;-83
2022/03/24 10:11:09;;;;;;;0.73;0.73;;;;;;;;;;4981158;28;20185;-83
2022/03/24 10:13:44;;;;;;;4.68;0.60;;;;;;;;;;4981457;28;20113;-83
2022/03/24 10:16:11;;;;;;;0.10;0.10;;;;;;;;;;4981077;28;20042;-83
2022/03/24 10:18:37;;;;;;;0.30;0.30;;;;;;;;;;4998277;28;20513;-83
2022/03/24 10:21:04;;;;;;;8.07;0.73;;;;;;;;;;4981754;28;20034;-85
2022/03/24 10:23:30;;;;;;;;;;;;;;;;;;4983286;28;20398;-84
2022/03/24 10:26:03;;;;;;;1.15;0.95;;;;;;;;;;4981926;28;19919;-83
2022/03/24 10:28:29;;;;;;;1.45;1.20;;;;;;;;;;4981567;28;20039;-84
2022/03/24 10:30:59;;;;;;;0.47;0.47;;;;;;;;;;4981400;28;20859;-84
2022/03/24 10:33:27;;;;;;;1.98;1.33;;;;;;;;;;4982132;28;20831;-84
2022/03/24 10:36:11;;;;;;;0.80;0.50;;;;;;;;;;4982403;28;20038;-84
2022/03/24 10:38:42;;;;;;;1.25;0.80;;;;;;;;;;4981283;28;20420;-83
2022/03/24 10:41:17;;;;;;;0.43;0.43;;;;;;;;;;4981413;28;20410;-84
2022/03/24 10:43:44;;;;;;;0.30;0.30;;;;;;;;;;4982139;28;20026;-84
2022/03/24 10:46:14;;;;;;;0.43;0.43;;;;;;;;;;4980132;28;20030;-84
2022/03/24 10:48:40;;;;;;;0.45;0.45;;;;;;;;;;4994810;28;20033;-83
2022/03/24 10:51:06;;;;;;;0.47;0.47;;;;;;;;;;4981993;28;20047;-83
2022/03/24 10:53:42;;;;;;;0.43;0.30;;;;;;;;;;4981209;28;20053;-84
2022/03/24 10:56:16;;;;;;;0.50;0.50;;;;;;;;;;4980976;28;20504;-84
2022/03/24 10:58:44;;;;;;;1.67;0.95;;;;;;;;;;4981062;28;20449;-84
2022/03/24 11:01:11;;;;;;;0.13;0.13;;;;;;;;;;4978604;28;20038;-84
2022/03/24 11:03:39;;;;;;;1.95;0.73;;;;;;;;;;4981869;28;20034;-84
2022/03/24 11:06:08;;;;;;;0.85;0.85;;;;;;;;;;4980982;28;20066;-84
2022/03/24 11:08:34;;;;;;;0.50;0.50;;;;;;;;;;4981001;28;20717;-84
2022/03/24 11:11:00;;;;;;;1.52;0.38;;;;;;;;;;4981326;28;20049;-84
2022/03/24 11:13:29;;;;;;;0.60;0.50;;;;;;;;;;4981531;28;20030;-84
2022/03/24 11:15:57;;;;;;;3.45;0.52;;;;;;;;;;4980499;28;20046;-84
2022/03/24 11:18:23;;;;;;;0.85;0.70;;;;;;;;;;4981126;28;20023;-84
2022/03/24 11:20:50;;;;;;;0.95;0.45;;;;;;;;;;4980949;28;20030;-84
2022/03/24 11:23:29;;;;;;;1.65;0.77;;;;;;;;;;4980979;28;20078;-84
2022/03/24 11:25:57;;;;;;;0.30;0.30;;;;;;;;;;4978282;28;20912;-84
2022/03/24 11:28:23;;;;;;;0.22;0.22;;;;;;;;;;4979408;28;20054;-84
2022/03/24 11:30:49;;;;;;;;;;;;;;;;;;4984943;28;20101;-87
2022/03/24 11:33:16;;;;;;;0.22;0.22;;;;;;;;;;4985011;28;20032;-85
2022/03/24 11:35:42;;;;;;;;;;;;;;;;;;4983629;28;20034;-84
2022/03/24 11:38:09;;;;;;;0.17;0.17;;;;;;;;;;4990511;28;19920;-84
2022/03/24 11:40:36;;;;;;;0.43;0.30;;;;;;;;;;4983116;28;20121;-84
2022/03/24 11:43:02;;;;;;;0.88;0.73;;;;;;;;;;4987011;28;20034;-83
2022/03/24 11:45:28;;;;;;;0.40;0.40;;;;;;;;;;4985536;28;20077;-84
2022/03/24 11:48:05;;;;;;;0.32;0.32;;;;;;;;;;4983819;28;20034;-84
2022/03/24 11:50:38;;;;;;;0.70;0.70;;;;;;;;;;4985840;28;20053;-84
2022/03/24 11:53:18;;;;;;;8.68;0.88;;;;;;;;;;4982843;28;20915;-84
2022/03/24 11:56:02;;;;;;;0.40;0.40;;;;;;;;;;4982350;28;20608;-84
2022/03/24 11:58:29;;;;;;;0.40;0.40;;;;;;;;;;4983297;28;20030;-84
2022/03/24 12:00:55;;;;;;;0.20;0.20;;;;;;;;;;4985140;28;20065;-84
2022/03/24 12:03:41;;;;;;;0.43;0.43;;;;;;;;;;4999058;28;20030;-83
2022/03/24 12:06:07;;;;;;;0.20;0.20;;;;;;;;;;4984161;28;20045;-84
2022/03/24 12:08:48;;;;;;;1.45;0.50;;;;;;;;;;4984269;28;20482;-84
2022/03/24 12:11:33;;;;;;;0.20;0.20;;;;;;;;;;4975945;28;20045;-84
2022/03/24 12:14:00;;;;;;;1.05;0.82;;;;;;;;;;4984439;28;20540;-84
2022/03/24 12:16:26;;;;;;;;;;;;;;;;;;4984169;28;20042;-84
2022/03/24 12:18:52;;;;;;;3.20;0.82;;;;;;;;;;4985017;28;20564;-83
2022/03/24 12:21:19;;;;;;;0.52;0.52;;;;;;;;;;4998847;28;20818;-84
2022/03/24 12:24:04;;;;;;;0.57;0.40;;;;;;;;;;4983831;28;20034;-84
2022/03/24 12:26:30;;;;;;;1.10;0.63;;;;;;;;;;4978265;28;20026;-84
2022/03/24 12:29:23;;;;;;;0.30;0.30;;;;;;;;;;4982202;28;20125;-84
2022/03/24 12:32:01;;;;;;;0.80;0.80;;;;;;;;;;4981306;28;20053;-84
2022/03/24 12:34:28;;;;;;;0.40;0.30;;;;;;;;;;4983134;28;20379;-84
2022/03/24 12:36:54;;;;;;;7.65;0.22;;;;;;;;;;4982660;28;20420;-85
2022/03/24 12:39:49;;;;;;;0.63;0.53;;;;;;;;;;4985471;28;20062;-84
2022/03/24 12:42:16;;;;;;;0.40;0.40;;;;;;;;;;4983841;28;20281;-84
2022/03/24 12:44:58;;;;;;;0.25;0.25;;;;;;;;;;4983411;28;20795;-84
2022/03/24 12:47:53;;;;;;;0.32;0.30;;;;;;;;;;4984233;28;20068;-84
2022/03/24 12:50:20;;;;;;;0.10;0.10;;;;;;;;;;4965153;28;20034;-84
2022/03/24 12:52:46;;;;;;;;;;;;;;;;;;4983560;28;20042;-84
2022/03/24 12:55:23;;;;;;;0.22;0.20;;;;;;;;;;4982968;28;19914;-84
2022/03/24 12:57:56;;;;;;;0.32;0.32;;;;;;;;;;4981577;28;20045;-85
2022/03/24 13:00:24;;;;;;;0.30;0.30;;;;;;;;;;4984012;28;20072;-84
2022/03/24 13:02:50;;;;;;;0.10;0.10;;;;;;;;;;4983668;28;20026;-84
2022/03/24 13:05:26;;;;;;;0.57;0.57;;;;;;;;;;4982373;28;20035;-84
2022/03/24 13:07:53;;;;;;;0.20;0.20;;;;;;;;;;4985619;28;20057;-90
2022/03/24 13:10:20;;;;;;;0.60;0.52;;;;;;;;;;4986687;28;20026;-90
2022/03/24 13:12:46;;;;;;;;;;;;;;;;;;4988399;28;20035;-90
2022/03/24 13:15:26;;;;;;;0.45;0.45;;;;;;;;;;5001748;28;19924;-89
2022/03/24 13:17:57;;;;;;;0.40;0.40;;;;;;;;;;5000259;28;20544;-90
2022/03/24 13:20:24;;;;;;;0.20;0.20;;;;;;;;;;4985839;28;20170;-90
2022/03/24 13:22:50;;;;;;;0.30;0.30;;;;;;;;;;4983747;28;20030;-89
2022/03/24 13:25:17;;;;;;;0.25;0.25;;;;;;;;;;4987104;28;20085;-90
2022/03/24 13:27:50;;;;;;;0.10;0.10;;;;;;;;;;4987547;28;20102;-90
2022/03/24 13:30:17;;;;;;;0.08;0.08;;;;;;;;;;5002235;28;20037;-90
2022/03/24 13:32:45;;;;;;;0.30;0.30;;;;;;;;;;4985524;28;20038;-90
2022/03/24 13:35:13;;;;;;;0.10;0.10;;;;;;;;;;4985929;28;20045;-89
2022/03/24 13:37:40;;;;;;;0.20;0.20;;;;;;;;;;4986926;28;20039;-90
2022/03/24 13:40:07;;;;;;;0.20;0.20;;;;;;;;;;4985770;28;20046;-90
2022/03/24 13:42:34;;;;;;;0.22;0.22;;;;;;;;;;4986253;28;20026;-89
2022/03/24 13:45:00;;;;;;;2.55;1.00;;;;;;;;;;4980266;28;20034;-90
2022/03/24 13:47:27;;;;;;;0.08;0.08;;;;;;;;;;4981016;28;20026;-91
2022/03/24 13:49:56;;;;;;;0.57;0.57;;;;;;;;;;4983870;28;20054;-89
2022/03/24 13:52:35;;;;;;;0.52;0.52;;;;;;;;;;4982734;28;20039;-90
2022/03/24 13:55:11;;;;;;;0.63;0.60;;;;;;;;;;4999953;28;20049;-89
2022/03/24 13:57:47;;;;;;;0.60;0.60;;;;;;;;;;5002257;28;20857;-89
2022/03/24 14:00:23;;;;;;;0.10;0.10;;;;;;;;;;5002300;28;20059;-89
2022/03/24 14:02:54;;;;;;;0.10;0.10;;;;;;;;;;4985044;28;20050;-89
2022/03/24 14:05:21;;;;;;;0.25;0.25;;;;;;;;;;4985051;28;20030;-90
2022/03/24 14:07:57;;;;;;;0.00;0.00;;;;;;;;;;4983717;28;20153;-85
2022/03/24 14:10:41;;;;;;;0.20;0.20;;;;;;;;;;4978700;28;20046;-85
2022/03/24 14:13:12;;;;;;;0.17;0.17;;;;;;;;;;4981503;28;20097;-84
2022/03/24 14:15:38;;;;;;;0.20;0.20;;;;;;;;;;4979925;28;20073;-84
2022/03/24 14:18:13;;;;;;;0.73;0.73;;;;;;;;;;4981148;28;20041;-84
2022/03/24 14:20:40;;;;;;;0.22;0.22;;;;;;;;;;4980219;28;20034;-85
2022/03/24 14:23:06;;;;;;;;;;;;;;;;;;4982127;28;20042;-84
2022/03/24 14:25:32;;;;;;;0.38;0.38;;;;;;;;;;4981552;28;20282;-84
2022/03/24 14:27:58;;;;;;;0.38;0.38;;;;;;;;;;4981111;28;20506;-84
2022/03/24 14:30:30;;;;;;;0.25;0.25;;;;;;;;;;4981625;28;20034;-84
2022/03/24 14:32:56;;;;;;;1.00;0.80;;;;;;;;;;4980538;28;20517;-83
2022/03/24 14:35:31;;;;;;;0.23;0.20;;;;;;;;;;4981140;28;20030;-84
2022/03/24 14:37:58;;;;;;;0.50;0.22;;;;;;;;;;4982159;28;20915;-83
2022/03/24 14:40:29;;;;;;;0.17;0.17;;;;;;;;;;4982341;28;20029;-84
2022/03/24 14:42:56;;;;;;;0.40;0.40;;;;;;;;;;4981087;28;20026;-85
2022/03/24 14:45:22;;;;;;;0.00;0.00;;;;;;;;;;4982100;28;20426;-84
2022/03/24 14:47:48;;;;;;;0.20;0.20;;;;;;;;;;4981389;28;20584;-85
2022/03/24 14:50:14;;;;;;;0.20;0.13;;;;;;;;;;4981996;28;20513;-85
2022/03/24 14:52:40;;;;;;;0.15;0.15;;;;;;;;;;4981387;28;20891;-84